Cairo, Egypt
Current Conditions -  °F | °C
As of 8:30 PM on Tuesday 21 Oct 2014 (Local Time) from HECA Reporting Station
Haze Haze  
Wind Chill: 23°   Ceiling: Unl
Heat Index: 23°   Visibility: 2.5mi
Dew Point: 10°   Wind: 3mph
Humidity: 44%   Direction: 360°N
Pressure: 30"   Gusts: NA
Location:  30.06°N, 31.25°E
Report Text: HECA 211830Z 36003KT 4000 HZ NSC 23/10 Q1016 NOSIG
Loading
Personal Weather Stations






























Interactive Weather Map
Tropical Storm Tracking
New forecast layout! Learn more

10-Day Weather Forecast

Advertisements
Track Severe Weather on mobile